Time,TemperatureF,DewpointF,PressureIn,WindDirection,WindDirectionDegrees,WindSpeedMPH,WindSpeedGustMPH,Humidity,HourlyPrecipIn,Conditions,Clouds,dailyrainin,SoftwareType,DateUTC
2013-06-12 00:04:00,48.0,42.1,29.10,SSE,158,0.0,0.0,80,0.00,RA,OVC,0.00,WeatherDisplay:10.37,2013-06-12 07:04:00,
2013-06-12 00:09:00,47.8,42.3,29.10,ESE,112,0.5,0.5,81,0.00,RA,OVC,0.00,WeatherDisplay:10.37,2013-06-12 07:09:00,
2013-06-12 00:14:00,47.8,42.3,29.11,ENE,68,0.0,0.0,81,0.00,CLR,OVC,0.00,WeatherDisplay:10.37,2013-06-12 07:14:00,
2013-06-12 00:19:00,47.7,42.1,29.11,NE,45,0.0,0.0,81,0.00,CLR,OVC,0.00,WeatherDisplay:10.37,2013-06-12 07:19:00,
2013-06-12 00:24:00,47.7,42.1,29.11,NNW,338,0.0,0.0,81,0.00,CLR,OVC,0.00,WeatherDisplay:10.37,2013-06-12 07:24:00,
2013-06-12 00:29:00,47.5,41.9,29.11,NNE,22,0.0,0.0,81,0.00,CLR,OVC,0.00,WeatherDisplay:10.37,2013-06-12 07:29:00,
2013-06-12 00:34:00,47.7,42.4,29.10,NW,315,0.2,0.2,82,0.00,CLR,OVC,0.00,WeatherDisplay:10.37,2013-06-12 07:34:00,
2013-06-12 00:39:00,47.8,42.9,29.11,NW,315,0.0,0.0,83,0.00,CLR,OVC,0.00,WeatherDisplay:10.37,2013-06-12 07:39:00,
2013-06-12 00:44:00,47.8,42.9,29.11,NW,315,0.0,0.0,83,0.00,CLR,OVC,0.00,WeatherDisplay:10.37,2013-06-12 07:44:00,
2013-06-12 00:49:00,47.8,42.9,29.11,NW,315,0.5,0.5,83,0.00,CLR,OVC,0.00,WeatherDisplay:10.37,2013-06-12 07:49:00,
2013-06-12 00:54:00,48.0,43.1,29.11,NW,315,0.0,0.0,83,0.00,CLR,OVC,0.00,WeatherDisplay:10.37,2013-06-12 07:54:00,
2013-06-12 00:59:00,48.2,43.3,29.11,NNW,338,1.2,0.0,83,0.00,CLR,OVC,0.00,WeatherDisplay:10.37,2013-06-12 07:59:00,
2013-06-12 01:04:00,48.2,43.3,29.11,NNW,338,0.0,0.0,83,0.00,CLR,OVC,0.00,WeatherDisplay:10.37,2013-06-12 08:04:00,
2013-06-12 01:09:00,48.4,43.5,29.11,NNW,338,0.0,0.0,83,0.00,CLR,OVC,0.00,WeatherDisplay:10.37,2013-06-12 08:09:00,
2013-06-12 01:14:00,48.4,43.5,29.11,NNW,338,0.0,0.0,83,0.00,CLR,OVC,0.00,WeatherDisplay:10.37,2013-06-12 08:14:00,
2013-06-12 01:19:00,48.4,43.5,29.11,NNW,338,0.0,0.0,83,0.00,CLR,OVC,0.00,WeatherDisplay:10.37,2013-06-12 08:19:00,
2013-06-12 01:24:00,48.6,43.9,29.10,NNW,338,0.0,0.0,84,0.00,CLR,OVC,0.00,WeatherDisplay:10.37,2013-06-12 08:24:00,
2013-06-12 01:29:00,48.6,43.9,29.11,NNW,338,0.0,0.0,84,0.00,CLR,OVC,0.00,WeatherDisplay:10.37,2013-06-12 08:29:00,
2013-06-12 01:34:00,48.6,43.9,29.11,NNW,338,0.0,0.0,84,0.00,CLR,OVC,0.00,WeatherDisplay:10.37,2013-06-12 08:34:00,
2013-06-12 01:39:00,48.6,43.6,29.11,East,90,0.0,0.0,83,0.00,CLR,OVC,0.00,WeatherDisplay:10.37,2013-06-12 08:39:00,
2013-06-12 01:44:00,48.6,43.9,29.11,East,90,0.0,0.0,84,0.00,CLR,OVC,0.00,WeatherDisplay:10.37,2013-06-12 08:44:00,
2013-06-12 01:49:00,48.6,43.6,29.10,East,90,0.0,0.0,83,0.00,CLR,OVC,0.00,WeatherDisplay:10.37,2013-06-12 08:49:00,
2013-06-12 01:54:00,48.6,43.6,29.10,East,90,0.0,0.0,83,0.00,CLR,OVC,0.00,WeatherDisplay:10.37,2013-06-12 08:54:00,
2013-06-12 01:59:00,48.7,43.8,29.10,East,90,0.0,0.0,83,0.00,CLR,OVC,0.00,WeatherDisplay:10.37,2013-06-12 08:59:00,
2013-06-12 02:04:00,48.7,43.8,29.10,North,0,0.0,0.0,83,0.00,CLR,OVC,0.00,WeatherDisplay:10.37,2013-06-12 09:04:00,
2013-06-12 02:09:00,48.6,43.6,29.10,NNE,22,0.0,0.0,83,0.00,CLR,OVC,0.00,WeatherDisplay:10.37,2013-06-12 09:09:00,
2013-06-12 02:14:00,48.6,43.6,29.10,NNE,22,0.0,0.0,83,0.00,CLR,OVC,0.00,WeatherDisplay:10.37,2013-06-12 09:14:00,
2013-06-12 02:19:00,48.6,43.6,29.10,NNE,22,0.0,0.0,83,0.00,CLR,OVC,0.00,WeatherDisplay:10.37,2013-06-12 09:19:00,
2013-06-12 02:24:00,48.6,43.6,29.10,East,90,0.0,0.0,83,0.00,CLR,OVC,0.00,WeatherDisplay:10.37,2013-06-12 09:24:00,
2013-06-12 02:29:00,48.7,44.1,29.10,North,0,0.0,0.0,84,0.00,CLR,OVC,0.00,WeatherDisplay:10.37,2013-06-12 09:29:00,
2013-06-12 02:34:00,48.7,43.8,29.10,NNW,338,0.0,0.0,83,0.00,CLR,OVC,0.00,WeatherDisplay:10.37,2013-06-12 09:34:00,
2013-06-12 02:39:00,48.9,44.0,29.10,NNW,338,0.0,0.0,83,0.00,CLR,OVC,0.00,WeatherDisplay:10.37,2013-06-12 09:39:00,
2013-06-12 02:44:00,48.7,43.8,29.10,ESE,112,0.0,0.0,83,0.00,CLR,OVC,0.00,WeatherDisplay:10.37,2013-06-12 09:44:00,
2013-06-12 02:49:00,48.7,43.8,29.10,ESE,112,0.0,0.0,83,0.00,CLR,OVC,0.00,WeatherDisplay:10.37,2013-06-12 09:49:00,
2013-06-12 02:54:00,48.6,43.6,29.10,ESE,112,0.0,0.0,83,0.00,CLR,OVC,0.00,WeatherDisplay:10.37,2013-06-12 09:54:00,
2013-06-12 02:59:00,48.7,43.8,29.10,ESE,112,0.0,0.0,83,0.00,CLR,OVC,0.00,WeatherDisplay:10.37,2013-06-12 09:59:00,
2013-06-12 03:04:00,48.6,43.6,29.10,ESE,112,0.0,0.0,83,0.00,CLR,OVC,0.00,WeatherDisplay:10.37,2013-06-12 10:04:00,
2013-06-12 03:09:00,48.6,43.6,29.10,ESE,112,0.0,0.0,83,0.00,CLR,OVC,0.00,WeatherDisplay:10.37,2013-06-12 10:09:00,
2013-06-12 03:14:00,48.6,43.6,29.09,ESE,112,0.0,0.0,83,0.00,CLR,OVC,0.00,WeatherDisplay:10.37,2013-06-12 10:14:00,
2013-06-12 03:19:00,48.6,43.6,29.10,ESE,112,0.0,0.0,83,0.00,CLR,OVC,0.00,WeatherDisplay:10.37,2013-06-12 10:19:00,
2013-06-12 03:24:00,48.6,43.6,29.10,ESE,112,0.0,0.0,83,0.00,CLR,OVC,0.00,WeatherDisplay:10.37,2013-06-12 10:24:00,
2013-06-12 03:29:00,48.6,43.9,29.10,ESE,112,0.0,0.0,84,0.00,CLR,OVC,0.00,WeatherDisplay:10.37,2013-06-12 10:29:00,
2013-06-12 03:34:00,48.6,43.9,29.09,ESE,112,0.0,0.0,84,0.00,CLR,OVC,0.00,WeatherDisplay:10.37,2013-06-12 10:34:00,
2013-06-12 03:39:00,48.6,43.9,29.09,ESE,112,0.0,0.0,84,0.00,CLR,OVC,0.00,WeatherDisplay:10.37,2013-06-12 10:39:00,
2013-06-12 03:44:00,48.6,43.9,29.09,ESE,112,0.0,0.0,84,0.00,CLR,OVC,0.00,WeatherDisplay:10.37,2013-06-12 10:44:00,
2013-06-12 03:49:00,48.4,43.8,29.09,ESE,112,0.0,0.0,84,0.00,CLR,OVC,0.00,WeatherDisplay:10.37,2013-06-12 10:49:00,
2013-06-12 03:54:00,48.4,43.5,29.09,ESE,112,0.0,0.0,83,0.00,CLR,OVC,0.00,WeatherDisplay:10.37,2013-06-12 10:54:00,
2013-06-12 03:59:00,48.2,43.3,29.09,ESE,112,0.0,0.0,83,0.00,CLR,OVC,0.00,WeatherDisplay:10.37,2013-06-12 10:59:00,
2013-06-12 04:04:00,48.2,43.3,29.10,ESE,112,0.0,0.0,83,0.00,CLR,OVC,0.00,WeatherDisplay:10.37,2013-06-12 11:04:00,
2013-06-12 04:09:00,48.2,43.3,29.10,ESE,112,0.0,0.0,83,0.00,CLR,OVC,0.00,WeatherDisplay:10.37,2013-06-12 11:09:00,
2013-06-12 04:14:00,48.2,43.3,29.10,ESE,112,0.0,0.0,83,0.00,CLR,OVC,0.00,WeatherDisplay:10.37,2013-06-12 11:14:00,
2013-06-12 04:19:00,48.2,43.3,29.10,ESE,112,0.0,0.0,83,0.00,CLR,OVC,0.00,WeatherDisplay:10.37,2013-06-12 11:19:00,
2013-06-12 04:24:00,48.2,43.3,29.10,East,90,1.2,0.0,83,0.00,CLR,OVC,0.00,WeatherDisplay:10.37,2013-06-12 11:24:00,
2013-06-12 04:29:00,48.2,43.3,29.10,East,90,0.0,0.0,83,0.00,CLR,OVC,0.00,WeatherDisplay:10.37,2013-06-12 11:29:00,
2013-06-12 04:34:00,48.2,43.3,29.10,East,90,0.0,0.0,83,0.00,CLR,OVC,0.00,WeatherDisplay:10.37,2013-06-12 11:34:00,
2013-06-12 04:39:00,48.2,43.3,29.10,East,90,0.0,0.0,83,0.00,CLR,OVC,0.00,WeatherDisplay:10.37,2013-06-12 11:39:00,
2013-06-12 04:44:00,48.2,43.3,29.10,East,90,0.0,0.0,83,0.00,CLR,OVC,0.00,WeatherDisplay:10.37,2013-06-12 11:44:00,
2013-06-12 04:49:00,48.0,43.1,29.10,East,90,0.0,0.0,83,0.00,CLR,OVC,0.00,WeatherDisplay:10.37,2013-06-12 11:49:00,
2013-06-12 04:54:00,48.2,43.3,29.10,East,90,0.0,0.0,83,0.00,CLR,OVC,0.00,WeatherDisplay:10.37,2013-06-12 11:54:00,
2013-06-12 04:59:00,48.2,43.3,29.10,East,90,0.5,0.5,83,0.00,CLR,OVC,0.00,WeatherDisplay:10.37,2013-06-12 11:59:00,
2013-06-12 05:04:00,48.2,43.3,29.10,ENE,68,1.2,1.2,83,0.00,CLR,OVC,0.00,WeatherDisplay:10.37,2013-06-12 12:04:00,
2013-06-12 05:10:00,48.0,43.1,29.10,ENE,68,0.0,0.0,83,0.00,CLR,OVC,0.00,WeatherDisplay:10.37,2013-06-12 12:10:00,
2013-06-12 05:15:00,48.0,43.1,29.10,ENE,68,0.2,0.2,83,0.00,CLR,OVC,0.00,WeatherDisplay:10.37,2013-06-12 12:15:00,
2013-06-12 05:20:00,48.0,43.4,29.10,ENE,68,0.5,0.5,84,0.00,CLR,OVC,0.00,WeatherDisplay:10.37,2013-06-12 12:20:00,
2013-06-12 05:25:00,48.0,43.4,29.10,ENE,68,1.2,1.2,84,0.00,CLR,OVC,0.00,WeatherDisplay:10.37,2013-06-12 12:25:00,
2013-06-12 05:30:00,48.0,43.4,29.10,ENE,68,1.2,1.4,84,0.00,CLR,OVC,0.00,WeatherDisplay:10.37,2013-06-12 12:30:00,
2013-06-12 05:35:00,48.0,43.4,29.10,ENE,68,1.2,1.2,84,0.00,CLR,OVC,0.00,WeatherDisplay:10.37,2013-06-12 12:35:00,
2013-06-12 05:40:00,48.0,43.1,29.10,ENE,68,0.0,0.0,83,0.00,CLR,OVC,0.00,WeatherDisplay:10.37,2013-06-12 12:40:00,
2013-06-12 05:45:00,48.0,43.1,29.10,ENE,68,0.0,0.0,83,0.00,CLR,OVC,0.00,WeatherDisplay:10.37,2013-06-12 12:45:00,
2013-06-12 05:50:00,48.2,43.3,29.10,ENE,68,0.0,0.0,83,0.00,CLR,OVC,0.00,WeatherDisplay:10.37,2013-06-12 12:50:00,
2013-06-12 05:55:00,48.2,43.3,29.10,ENE,68,0.0,0.0,83,0.00,CLR,OVC,0.00,WeatherDisplay:10.37,2013-06-12 12:55:00,
2013-06-12 06:00:00,48.6,43.6,29.10,ENE,68,0.0,0.0,83,0.00,CLR,OVC,0.00,WeatherDisplay:10.37,2013-06-12 13:00:00,
2013-06-12 06:05:00,48.6,43.6,29.11,ENE,68,0.0,0.0,83,0.00,CLR,OVC,0.00,WeatherDisplay:10.37,2013-06-12 13:05:00,
2013-06-12 06:10:00,48.6,43.9,29.11,WNW,292,1.2,0.0,84,0.00,CLR,OVC,0.00,WeatherDisplay:10.37,2013-06-12 13:10:00,
2013-06-12 06:15:00,48.9,44.0,29.11,WNW,292,0.0,0.0,83,0.00,CLR,OVC,0.00,WeatherDisplay:10.37,2013-06-12 13:15:00,
2013-06-12 06:20:00,48.9,44.0,29.11,WNW,292,1.2,1.2,83,0.00,CLR,OVC,0.00,WeatherDisplay:10.37,2013-06-12 13:20:00,
2013-06-12 06:25:00,49.1,44.2,29.11,WNW,292,0.0,0.0,83,0.00,CLR,OVC,0.00,WeatherDisplay:10.37,2013-06-12 13:25:00,
2013-06-12 06:30:00,49.3,44.3,29.11,WNW,292,0.0,0.0,83,0.00,CLR,OVC,0.00,WeatherDisplay:10.37,2013-06-12 13:30:00,
2013-06-12 06:35:00,49.3,44.3,29.11,WNW,292,0.0,0.5,83,0.00,CLR,OVC,0.00,WeatherDisplay:10.37,2013-06-12 13:35:00,
2013-06-12 06:40:00,49.5,44.5,29.11,WNW,292,0.0,0.0,83,0.00,CLR,OVC,0.00,WeatherDisplay:10.37,2013-06-12 13:40:00,
2013-06-12 06:45:00,49.6,45.0,29.11,WNW,292,0.0,0.0,84,0.00,CLR,OVC,0.00,WeatherDisplay:10.37,2013-06-12 13:45:00,
2013-06-12 06:50:00,49.8,45.2,29.11,WNW,292,0.0,0.0,84,0.00,CLR,OVC,0.00,WeatherDisplay:10.37,2013-06-12 13:50:00,
2013-06-12 06:55:00,50.0,45.4,29.11,WNW,292,0.0,0.0,84,0.00,CLR,OVC,0.00,WeatherDisplay:10.37,2013-06-12 13:55:00,
2013-06-12 07:00:00,50.4,45.7,29.11,WNW,292,0.0,0.0,84,0.00,CLR,OVC,0.00,WeatherDisplay:10.37,2013-06-12 14:00:00,
2013-06-12 07:05:00,50.5,45.6,29.11,WNW,292,0.0,0.0,83,0.00,CLR,OVC,0.00,WeatherDisplay:10.37,2013-06-12 14:05:00,
2013-06-12 07:10:00,50.7,45.7,29.11,WNW,292,0.0,0.0,83,0.00,CLR,OVC,0.00,WeatherDisplay:10.37,2013-06-12 14:10:00,
2013-06-12 07:15:00,50.7,45.7,29.11,WNW,292,1.2,1.2,83,0.00,CLR,OVC,0.00,WeatherDisplay:10.37,2013-06-12 14:15:00,
2013-06-12 07:20:00,50.9,45.9,29.11,WNW,292,1.2,1.2,83,0.00,CLR,OVC,0.00,WeatherDisplay:10.37,2013-06-12 14:20:00,
2013-06-12 07:25:00,51.4,46.4,29.11,WSW,248,0.7,0.7,83,0.00,CLR,OVC,0.00,WeatherDisplay:10.37,2013-06-12 14:25:00,
2013-06-12 07:30:00,51.6,46.3,29.11,SW,225,1.2,1.2,82,0.00,CLR,OVC,0.00,WeatherDisplay:10.37,2013-06-12 14:30:00,
2013-06-12 07:35:00,51.8,46.5,29.11,SW,225,0.9,0.9,82,0.00,CLR,OVC,0.00,WeatherDisplay:10.37,2013-06-12 14:35:00,
2013-06-12 07:40:00,52.2,46.8,29.11,SW,225,0.0,0.0,82,0.00,CLR,OVC,0.00,WeatherDisplay:10.37,2013-06-12 14:40:00,
2013-06-12 07:45:00,52.5,47.2,29.11,SW,225,0.0,0.0,82,0.00,CLR,OVC,0.00,WeatherDisplay:10.37,2013-06-12 14:45:00,
2013-06-12 07:50:00,52.7,47.0,29.11,SW,225,0.0,0.0,81,0.00,CLR,OVC,0.00,WeatherDisplay:10.37,2013-06-12 14:50:00,
2013-06-12 07:55:00,52.9,46.9,29.11,NNE,22,0.2,0.2,80,0.00,CLR,OVC,0.00,WeatherDisplay:10.37,2013-06-12 14:55:00,
2013-06-12 08:00:00,53.1,47.1,29.11,WNW,292,1.2,1.2,80,0.00,CLR,OVC,0.00,WeatherDisplay:10.37,2013-06-12 15:00:00,
2013-06-12 08:05:00,53.2,47.2,29.11,WNW,292,1.2,1.2,80,0.00,CLR,OVC,0.00,WeatherDisplay:10.37,2013-06-12 15:05:00,
2013-06-12 08:10:00,53.2,46.9,29.11,WNW,292,0.0,0.0,79,0.00,CLR,OVC,0.00,WeatherDisplay:10.37,2013-06-12 15:10:00,
2013-06-12 08:15:00,53.6,47.6,29.11,SW,225,1.2,0.0,80,0.00,CLR,OVC,0.00,WeatherDisplay:10.37,2013-06-12 15:15:00,
2013-06-12 08:20:00,54.1,47.8,29.12,WSW,248,2.3,2.3,79,0.00,CLR,OVC,0.00,WeatherDisplay:10.37,2013-06-12 15:20:00,
2013-06-12 08:25:00,55.4,48.7,29.11,WSW,248,2.3,2.3,78,0.00,CLR,OVC,0.00,WeatherDisplay:10.37,2013-06-12 15:25:00,
2013-06-12 08:30:00,56.1,49.4,29.12,SW,225,1.4,1.4,78,0.00,CLR,OVC,0.00,WeatherDisplay:10.37,2013-06-12 15:30:00,
2013-06-12 08:35:00,56.1,48.7,29.12,SSW,202,1.2,1.2,76,0.00,CLR,OVC,0.00,WeatherDisplay:10.37,2013-06-12 15:35:00,
2013-06-12 08:40:00,56.1,48.7,29.12,SSW,202,0.0,0.0,76,0.00,CLR,OVC,0.00,WeatherDisplay:10.37,2013-06-12 15:40:00,
2013-06-12 08:45:00,56.1,48.3,29.12,SW,225,1.2,1.6,75,0.00,CLR,OVC,0.00,WeatherDisplay:10.37,2013-06-12 15:45:00,
2013-06-12 08:50:00,56.3,48.5,29.12,West,270,1.2,1.2,75,0.00,CLR,OVC,0.00,WeatherDisplay:10.37,2013-06-12 15:50:00,
2013-06-12 08:55:00,57.0,49.5,29.12,SSE,158,2.3,2.3,76,0.00,CLR,OVC,0.00,WeatherDisplay:10.37,2013-06-12 15:55:00,
2013-06-12 09:00:00,57.6,49.7,29.12,WSW,248,1.2,1.2,75,0.00,CLR,OVC,0.00,WeatherDisplay:10.37,2013-06-12 16:00:00,
2013-06-12 09:05:00,57.6,49.0,29.12,SSW,202,1.2,1.2,73,0.00,CLR,OVC,0.00,WeatherDisplay:10.37,2013-06-12 16:05:00,
2013-06-12 09:10:00,57.6,49.0,29.12,SE,135,1.2,1.2,73,0.00,CLR,OVC,0.00,WeatherDisplay:10.37,2013-06-12 16:10:00,
2013-06-12 09:15:00,57.6,48.2,29.12,SW,225,2.3,2.3,71,0.00,CLR,OVC,0.00,WeatherDisplay:10.37,2013-06-12 16:15:00,
2013-06-12 09:20:00,57.6,48.6,29.12,SE,135,1.2,1.2,72,0.00,CLR,OVC,0.00,WeatherDisplay:10.37,2013-06-12 16:20:00,
2013-06-12 09:25:00,57.9,48.6,29.12,SE,135,1.4,1.4,71,0.00,CLR,OVC,0.00,WeatherDisplay:10.37,2013-06-12 16:25:00,
2013-06-12 09:30:00,58.3,48.5,29.12,SE,135,1.2,1.2,70,0.00,CLR,OVC,0.00,WeatherDisplay:10.37,2013-06-12 16:30:00,
2013-06-12 09:35:00,58.6,48.5,29.12,SW,225,1.2,1.2,69,0.00,CLR,OVC,0.00,WeatherDisplay:10.37,2013-06-12 16:35:00,
2013-06-12 09:40:00,59.2,48.6,29.12,WSW,248,2.3,2.3,68,0.00,CLR,OVC,0.00,WeatherDisplay:10.37,2013-06-12 16:40:00,
2013-06-12 09:45:00,59.5,49.0,29.12,SSE,158,2.3,2.3,68,0.00,CLR,OVC,0.00,WeatherDisplay:10.37,2013-06-12 16:45:00,
2013-06-12 09:50:00,59.9,48.9,29.12,SE,135,2.3,2.3,67,0.00,CLR,OVC,0.00,WeatherDisplay:10.37,2013-06-12 16:50:00,
2013-06-12 09:55:00,60.1,49.1,29.12,ESE,112,2.3,0.0,67,0.00,CLR,OVC,0.00,WeatherDisplay:10.37,2013-06-12 16:55:00,
2013-06-12 10:00:00,60.6,49.6,29.12,SSW,202,1.2,1.2,67,0.00,CLR,OVC,0.00,WeatherDisplay:10.37,2013-06-12 17:00:00,
2013-06-12 10:05:00,61.3,50.3,29.12,SSW,202,2.3,2.3,67,0.00,CLR,OVC,0.00,WeatherDisplay:10.37,2013-06-12 17:05:00,
2013-06-12 10:10:00,62.6,50.7,29.12,NW,315,2.3,2.3,65,0.00,CLR,OVC,0.00,WeatherDisplay:10.37,2013-06-12 17:10:00,
2013-06-12 10:15:00,63.1,50.3,29.12,SE,135,2.3,2.3,63,0.00,CLR,OVC,0.00,WeatherDisplay:10.37,2013-06-12 17:15:00,
2013-06-12 10:20:00,63.3,50.1,29.12,SW,225,2.3,2.3,62,0.00,CLR,OVC,0.00,WeatherDisplay:10.37,2013-06-12 17:20:00,
2013-06-12 10:25:00,63.1,49.9,29.12,SSW,202,2.6,2.6,62,0.00,CLR,OVC,0.00,WeatherDisplay:10.37,2013-06-12 17:25:00,
2013-06-12 10:30:00,62.2,49.1,29.12,SSW,202,2.4,2.4,62,0.00,CLR,OVC,0.00,WeatherDisplay:10.37,2013-06-12 17:30:00,
2013-06-12 10:35:00,61.7,49.4,29.12,SSW,202,2.3,2.3,64,0.00,CLR,OVC,0.00,WeatherDisplay:10.37,2013-06-12 17:35:00,
2013-06-12 10:40:00,61.3,48.6,29.12,SSE,158,3.5,3.5,63,0.00,CLR,OVC,0.00,WeatherDisplay:10.37,2013-06-12 17:40:00,
2013-06-12 10:46:00,61.0,48.7,29.12,SE,135,2.4,2.4,64,0.00,CLR,OVC,0.00,WeatherDisplay:10.37,2013-06-12 17:46:00,
2013-06-12 10:51:00,61.0,49.1,29.12,South,180,2.3,2.3,65,0.00,CLR,OVC,0.00,WeatherDisplay:10.37,2013-06-12 17:51:00,
2013-06-12 10:56:00,61.2,48.5,29.12,South,180,3.5,3.5,63,0.00,CLR,OVC,0.00,WeatherDisplay:10.37,2013-06-12 17:56:00,
2013-06-12 11:01:00,61.5,48.4,29.12,South,180,3.5,3.5,62,0.00,CLR,OVC,0.00,WeatherDisplay:10.37,2013-06-12 18:01:00,
2013-06-12 11:06:00,61.3,48.2,29.12,ESE,112,2.3,2.3,62,0.00,CLR,OVC,0.00,WeatherDisplay:10.37,2013-06-12 18:06:00,
2013-06-12 11:11:00,61.3,48.6,29.12,SSW,202,2.4,2.4,63,0.00,CLR,OVC,0.00,WeatherDisplay:10.37,2013-06-12 18:11:00,
2013-06-12 11:16:00,62.2,49.5,29.12,East,90,2.3,2.3,63,0.00,CLR,OVC,0.00,WeatherDisplay:10.37,2013-06-12 18:16:00,
2013-06-12 11:21:00,63.7,50.4,29.12,SW,225,1.2,1.2,62,0.00,CLR,OVC,0.00,WeatherDisplay:10.37,2013-06-12 18:21:00,
2013-06-12 11:26:00,64.0,49.4,29.12,West,270,2.3,2.3,59,0.00,CLR,OVC,0.00,WeatherDisplay:10.37,2013-06-12 18:26:00,
2013-06-12 11:31:00,63.7,49.1,29.12,SSW,202,2.3,2.3,59,0.00,CLR,OVC,0.00,WeatherDisplay:10.37,2013-06-12 18:31:00,
2013-06-12 11:36:00,63.7,49.5,29.12,SW,225,2.3,2.3,60,0.00,CLR,OVC,0.00,WeatherDisplay:10.37,2013-06-12 18:36:00,
2013-06-12 11:41:00,63.5,48.9,29.12,West,270,3.6,3.6,59,0.00,CLR,OVC,0.00,WeatherDisplay:10.37,2013-06-12 18:41:00,
2013-06-12 11:46:00,61.5,47.1,29.13,SW,225,3.5,3.5,59,0.00,CLR,OVC,0.00,WeatherDisplay:10.37,2013-06-12 18:46:00,
2013-06-12 11:51:00,60.4,47.4,29.13,ESE,112,2.3,2.3,62,0.00,CLR,OVC,0.00,WeatherDisplay:10.37,2013-06-12 18:51:00,
2013-06-12 11:56:00,59.7,47.5,29.13,West,270,2.3,2.3,64,0.00,CLR,OVC,0.00,WeatherDisplay:10.37,2013-06-12 18:56:00,
2013-06-12 12:01:00,59.0,46.8,29.13,NW,315,2.3,2.3,64,0.00,CLR,OVC,0.00,WeatherDisplay:10.37,2013-06-12 19:01:00,
2013-06-12 12:06:00,58.8,47.5,29.13,NW,315,0.7,0.7,66,0.00,CLR,OVC,0.00,WeatherDisplay:10.37,2013-06-12 19:06:00,
2013-06-12 12:11:00,59.5,48.6,29.13,WNW,292,1.2,1.2,67,0.00,CLR,OVC,0.00,WeatherDisplay:10.37,2013-06-12 19:11:00,
2013-06-12 12:16:00,60.4,49.4,29.12,SE,135,1.2,2.0,67,0.00,CLR,OVC,0.00,WeatherDisplay:10.37,2013-06-12 19:16:00,
2013-06-12 12:21:00,61.7,50.6,29.12,ESE,112,2.3,2.3,67,0.00,CLR,OVC,0.00,WeatherDisplay:10.37,2013-06-12 19:21:00,
2013-06-12 12:26:00,62.4,51.3,29.12,SSE,158,2.3,2.3,67,0.00,CLR,OVC,0.00,WeatherDisplay:10.37,2013-06-12 19:26:00,
2013-06-12 12:31:00,63.3,51.3,29.12,SE,135,3.5,3.5,65,0.00,CLR,OVC,0.00,WeatherDisplay:10.37,2013-06-12 19:31:00,
2013-06-12 12:36:00,63.3,50.5,29.12,SE,135,5.8,5.8,63,0.00,CLR,OVC,0.00,WeatherDisplay:10.37,2013-06-12 19:36:00,
2013-06-12 12:41:00,62.6,49.4,29.12,SE,135,4.6,4.6,62,0.00,CLR,OVC,0.00,WeatherDisplay:10.37,2013-06-12 19:41:00,
2013-06-12 12:46:00,62.6,49.8,29.12,SE,135,4.6,4.6,63,0.00,CLR,OVC,0.00,WeatherDisplay:10.37,2013-06-12 19:46:00,
2013-06-12 12:51:00,64.0,51.2,29.12,ESE,112,4.3,4.3,63,0.00,CLR,OVC,0.00,WeatherDisplay:10.37,2013-06-12 19:51:00,
2013-06-12 12:56:00,64.2,50.9,29.12,ESE,112,3.5,3.5,62,0.00,CLR,OVC,0.00,WeatherDisplay:10.37,2013-06-12 19:56:00,
2013-06-12 13:01:00,63.9,49.2,29.12,ESE,112,4.6,4.6,59,0.00,CLR,OVC,0.00,WeatherDisplay:10.37,2013-06-12 20:01:00,
2013-06-12 13:06:00,62.8,48.2,29.12,SE,135,4.6,4.6,59,0.00,CLR,OVC,0.00,WeatherDisplay:10.37,2013-06-12 20:06:00,
2013-06-12 13:11:00,62.8,50.0,29.12,SE,135,3.5,3.5,63,0.00,CLR,OVC,0.00,WeatherDisplay:10.37,2013-06-12 20:11:00,
2013-06-12 13:16:00,63.3,50.5,29.12,SSE,158,4.6,4.6,63,0.00,CLR,OVC,0.00,WeatherDisplay:10.37,2013-06-12 20:16:00,
2013-06-12 13:21:00,64.8,51.0,29.12,South,180,2.4,2.4,61,0.00,CLR,OVC,0.00,WeatherDisplay:10.37,2013-06-12 20:21:00,
2013-06-12 13:26:00,65.5,50.3,29.12,SSW,202,3.5,3.5,58,0.00,CLR,OVC,0.00,WeatherDisplay:10.37,2013-06-12 20:26:00,
2013-06-12 13:31:00,65.5,49.8,29.12,SSW,202,3.5,3.5,57,0.00,CLR,OVC,0.00,WeatherDisplay:10.37,2013-06-12 20:31:00,
2013-06-12 13:36:00,65.1,49.5,29.12,SW,225,3.5,3.5,57,0.00,CLR,OVC,0.00,WeatherDisplay:10.37,2013-06-12 20:36:00,
2013-06-12 13:41:00,63.9,47.9,29.12,SSW,202,3.5,3.5,56,0.00,CLR,OVC,0.00,WeatherDisplay:10.37,2013-06-12 20:41:00,
2013-06-12 13:46:00,63.1,48.6,29.12,SSW,202,2.4,2.4,59,0.00,CLR,OVC,0.00,WeatherDisplay:10.37,2013-06-12 20:46:00,
2013-06-12 13:51:00,62.2,48.2,29.13,SE,135,3.3,3.3,60,0.00,CLR,OVC,0.00,WeatherDisplay:10.37,2013-06-12 20:51:00,
2013-06-12 13:56:00,61.5,47.9,29.13,SW,225,2.3,2.3,61,0.00,CLR,OVC,0.00,WeatherDisplay:10.37,2013-06-12 20:56:00,
2013-06-12 14:01:00,60.6,47.9,29.13,SSW,202,2.3,2.3,63,0.00,CLR,OVC,0.00,WeatherDisplay:10.37,2013-06-12 21:01:00,
2013-06-12 14:06:00,59.7,47.5,29.13,West,270,3.5,3.5,64,0.01,RA,OVC,0.01,WeatherDisplay:10.37,2013-06-12 21:06:00,
2013-06-12 14:11:00,58.6,47.7,29.13,WSW,248,2.3,2.3,67,0.02,RA,OVC,0.02,WeatherDisplay:10.37,2013-06-12 21:11:00,
2013-06-12 14:16:00,57.7,47.6,29.13,West,270,1.2,1.2,69,0.03,RA,OVC,0.03,WeatherDisplay:10.37,2013-06-12 21:16:00,
2013-06-12 14:21:00,57.2,48.3,29.13,North,0,1.2,1.2,72,0.05,RA,OVC,0.06,WeatherDisplay:10.37,2013-06-12 21:21:00,
2013-06-12 14:26:00,56.7,47.7,29.13,North,0,1.2,0.0,72,0.07,RA,OVC,0.08,WeatherDisplay:10.37,2013-06-12 21:26:00,
2013-06-12 14:31:00,56.3,48.5,29.13,ENE,68,2.3,2.3,75,0.09,RA,OVC,0.10,WeatherDisplay:10.37,2013-06-12 21:31:00,
2013-06-12 14:37:00,55.8,48.3,29.13,SE,135,1.2,1.2,76,0.11,RA,OVC,0.11,WeatherDisplay:10.37,2013-06-12 21:37:00,
2013-06-12 14:42:00,55.9,48.5,29.13,ESE,112,0.0,0.5,76,0.12,RA,OVC,0.13,WeatherDisplay:10.37,2013-06-12 21:42:00,
2013-06-12 14:47:00,56.3,48.8,29.13,NE,45,0.0,0.0,76,0.14,RA,OVC,0.14,WeatherDisplay:10.37,2013-06-12 21:47:00,
2013-06-12 14:52:00,57.2,49.7,29.13,SE,135,1.2,1.2,76,0.14,RA,OVC,0.14,WeatherDisplay:10.37,2013-06-12 21:52:00,
2013-06-12 14:57:00,58.3,50.7,29.13,SSE,158,2.3,2.3,76,0.14,,OVC,0.14,WeatherDisplay:10.37,2013-06-12 21:57:00,
2013-06-12 15:02:00,59.7,52.1,29.13,ESE,112,1.2,1.2,76,0.14,CLR,OVC,0.14,WeatherDisplay:10.37,2013-06-12 22:02:00,
2013-06-12 15:07:00,61.0,52.3,29.13,ESE,112,2.6,2.6,73,0.13,CLR,OVC,0.14,WeatherDisplay:10.37,2013-06-12 22:07:00,
2013-06-12 15:12:00,60.8,52.1,29.13,South,180,1.2,1.2,73,0.12,CLR,OVC,0.14,WeatherDisplay:10.37,2013-06-12 22:12:00,
2013-06-12 15:17:00,60.8,51.7,29.13,SSE,158,1.2,1.2,72,0.11,CLR,OVC,0.14,WeatherDisplay:10.37,2013-06-12 22:17:00,
2013-06-12 15:22:00,60.4,51.0,29.13,West,270,2.3,2.3,71,0.08,CLR,OVC,0.14,WeatherDisplay:10.37,2013-06-12 22:22:00,
2013-06-12 15:27:00,59.7,50.3,29.13,West,270,1.2,0.0,71,0.06,CLR,OVC,0.14,WeatherDisplay:10.37,2013-06-12 22:27:00,
2013-06-12 15:32:00,59.4,50.0,29.12,WNW,292,1.2,1.2,71,0.05,RA,OVC,0.15,WeatherDisplay:10.37,2013-06-12 22:32:00,
2013-06-12 15:37:00,59.0,50.4,29.12,WNW,292,1.2,1.2,73,0.04,RA,OVC,0.15,WeatherDisplay:10.37,2013-06-12 22:37:00,
2013-06-12 15:42:00,58.3,49.7,29.13,West,270,2.3,2.3,73,0.03,CLR,OVC,0.15,WeatherDisplay:10.37,2013-06-12 22:42:00,
2013-06-12 15:47:00,57.6,49.7,29.13,SW,225,2.3,2.3,75,0.02,RA,OVC,0.16,WeatherDisplay:10.37,2013-06-12 22:47:00,
2013-06-12 15:52:00,56.8,50.4,29.13,SW,225,3.5,3.5,79,0.02,RA,OVC,0.16,WeatherDisplay:10.37,2013-06-12 22:52:00,
2013-06-12 15:57:00,55.9,49.5,29.13,SW,225,1.6,1.6,79,0.03,RA,OVC,0.17,WeatherDisplay:10.37,2013-06-12 22:57:00,
2013-06-12 16:02:00,55.8,49.3,29.14,NNE,22,2.3,0.0,79,0.05,RA,OVC,0.19,WeatherDisplay:10.37,2013-06-12 23:02:00,
2013-06-12 16:07:00,55.4,49.0,29.13,West,270,1.2,0.0,79,0.07,RA,OVC,0.22,WeatherDisplay:10.37,2013-06-12 23:07:00,
2013-06-12 16:12:00,55.8,50.0,29.13,West,270,0.0,0.0,81,0.08,RA,OVC,0.22,WeatherDisplay:10.37,2013-06-12 23:12:00,
2013-06-12 16:17:00,56.5,50.7,29.13,SW,225,1.2,1.2,81,0.09,RA,OVC,0.23,WeatherDisplay:10.37,2013-06-12 23:17:00,
2013-06-12 16:22:00,57.4,51.9,29.13,WNW,292,1.2,1.2,82,0.11,RA,OVC,0.26,WeatherDisplay:10.37,2013-06-12 23:22:00,
2013-06-12 16:27:00,58.1,52.3,29.13,WNW,292,1.8,1.8,81,0.11,RA,OVC,0.26,WeatherDisplay:10.37,2013-06-12 23:27:00,
2013-06-12 16:32:00,58.1,52.0,29.13,WSW,248,2.3,2.3,80,0.10,,OVC,0.26,WeatherDisplay:10.37,2013-06-12 23:32:00,
2013-06-12 16:37:00,57.9,51.4,29.13,West,270,2.3,2.3,79,0.10,CLR,OVC,0.26,WeatherDisplay:10.37,2013-06-12 23:37:00,
2013-06-12 16:42:00,57.6,51.1,29.13,West,270,2.3,2.3,79,0.10,CLR,OVC,0.26,WeatherDisplay:10.37,2013-06-12 23:42:00,
2013-06-12 16:47:00,57.0,50.9,29.13,West,270,2.3,2.3,80,0.09,CLR,OVC,0.26,WeatherDisplay:10.37,2013-06-12 23:47:00,
2013-06-12 16:52:00,56.7,50.6,29.13,WNW,292,2.3,2.3,80,0.10,RA,OVC,0.26,WeatherDisplay:10.37,2013-06-12 23:52:00,
2013-06-12 16:57:00,56.3,50.5,29.13,North,0,1.2,1.2,81,0.09,RA,OVC,0.26,WeatherDisplay:10.37,2013-06-12 23:57:00,
2013-06-12 17:02:00,55.9,50.2,29.13,West,270,2.3,2.3,81,0.07,CLR,OVC,0.26,WeatherDisplay:10.37,2013-06-13 00:02:00,
2013-06-12 17:07:00,55.6,49.8,29.14,WNW,292,1.2,1.2,81,0.06,RA,OVC,0.28,WeatherDisplay:10.37,2013-06-13 00:07:00,
2013-06-12 17:12:00,55.4,49.3,29.13,WSW,248,0.2,0.2,80,0.08,RA,OVC,0.31,WeatherDisplay:10.37,2013-06-13 00:12:00,
2013-06-12 17:17:00,55.4,49.7,29.13,West,270,1.2,1.2,81,0.08,RA,OVC,0.31,WeatherDisplay:10.37,2013-06-13 00:17:00,
2013-06-12 17:22:00,55.2,49.5,29.13,WNW,292,0.0,0.9,81,0.07,RA,OVC,0.33,WeatherDisplay:10.37,2013-06-13 00:22:00,
2013-06-12 17:27:00,55.2,49.5,29.13,ESE,112,1.2,1.2,81,0.07,RA,OVC,0.33,WeatherDisplay:10.37,2013-06-13 00:27:00,
2013-06-12 17:32:00,55.4,50.0,29.13,SSE,158,1.2,1.2,82,0.08,RA,OVC,0.33,WeatherDisplay:10.37,2013-06-13 00:32:00,
2013-06-12 17:37:00,55.2,49.5,29.13,WNW,292,1.2,1.2,81,0.08,RA,OVC,0.33,WeatherDisplay:10.37,2013-06-13 00:37:00,
2013-06-12 17:42:00,55.0,49.3,29.13,NW,315,2.3,2.3,81,0.08,CLR,OVC,0.33,WeatherDisplay:10.37,2013-06-13 00:42:00,
2013-06-12 17:47:00,54.5,48.8,29.13,West,270,2.3,2.3,81,0.08,CLR,OVC,0.33,WeatherDisplay:10.37,2013-06-13 00:47:00,
2013-06-12 17:52:00,54.3,48.9,29.13,SSW,202,0.5,0.5,82,0.07,CLR,OVC,0.33,WeatherDisplay:10.37,2013-06-13 00:52:00,
2013-06-12 17:57:00,54.3,48.9,29.13,West,270,1.2,1.2,82,0.07,CLR,OVC,0.33,WeatherDisplay:10.37,2013-06-13 00:57:00,
2013-06-12 18:02:00,54.1,48.8,29.13,West,270,1.8,1.8,82,0.07,CLR,OVC,0.35,WeatherDisplay:10.37,2013-06-13 01:02:00,
2013-06-12 18:07:00,54.1,49.1,29.12,NNW,338,2.3,2.3,83,0.08,RA,OVC,0.35,WeatherDisplay:10.37,2013-06-13 01:07:00,
2013-06-12 18:12:00,54.1,49.1,29.13,WSW,248,2.3,2.3,83,0.05,RA,OVC,0.35,WeatherDisplay:10.37,2013-06-13 01:12:00,
2013-06-12 18:17:00,54.9,50.1,29.12,SW,225,1.2,1.2,84,0.04,,OVC,0.35,WeatherDisplay:10.37,2013-06-13 01:17:00,
2013-06-12 18:22:00,55.8,51.0,29.13,WSW,248,1.2,1.2,84,0.03,CLR,OVC,0.35,WeatherDisplay:10.37,2013-06-13 01:22:00,
2013-06-12 18:27:00,58.1,53.6,29.13,ENE,68,1.2,1.2,85,0.02,CLR,OVC,0.35,WeatherDisplay:10.37,2013-06-13 01:27:00,
2013-06-12 18:32:00,59.4,53.5,29.13,WSW,248,0.2,0.2,81,0.02,CLR,OVC,0.35,WeatherDisplay:10.37,2013-06-13 01:32:00,
2013-06-12 18:37:00,58.8,52.3,29.12,WSW,248,1.2,0.0,79,0.02,CLR,OVC,0.35,WeatherDisplay:10.37,2013-06-13 01:37:00,
2013-06-12 18:42:00,58.3,51.8,29.13,West,270,0.0,0.0,79,0.02,CLR,OVC,0.35,WeatherDisplay:10.37,2013-06-13 01:42:00,
2013-06-12 18:47:00,57.6,51.1,29.13,WSW,248,1.2,1.2,79,0.02,CLR,OVC,0.35,WeatherDisplay:10.37,2013-06-13 01:47:00,
2013-06-12 18:52:00,56.8,50.7,29.13,WSW,248,1.2,1.2,80,0.02,CLR,OVC,0.35,WeatherDisplay:10.37,2013-06-13 01:52:00,
2013-06-12 18:57:00,56.8,51.1,29.13,WSW,248,1.2,1.2,81,0.02,CLR,OVC,0.35,WeatherDisplay:10.37,2013-06-13 01:57:00,
2013-06-12 19:02:00,58.5,52.6,29.13,WNW,292,1.2,1.2,81,0.01,CLR,OVC,0.35,WeatherDisplay:10.37,2013-06-13 02:02:00,
2013-06-12 19:07:00,59.0,52.5,29.13,West,270,1.2,1.2,79,0.00,CLR,OVC,0.35,WeatherDisplay:10.37,2013-06-13 02:07:00,
2013-06-12 19:13:00,58.3,51.4,29.13,WSW,248,0.0,0.0,78,0.00,CLR,OVC,0.35,WeatherDisplay:10.37,2013-06-13 02:13:00,
2013-06-12 19:18:00,58.3,51.8,29.13,WSW,248,0.0,0.0,79,0.00,CLR,OVC,0.35,WeatherDisplay:10.37,2013-06-13 02:18:00,
2013-06-12 19:23:00,57.7,51.3,29.13,WSW,248,1.2,1.2,79,0.00,CLR,OVC,0.35,WeatherDisplay:10.37,2013-06-13 02:23:00,
2013-06-12 19:28:00,56.5,50.0,29.13,West,270,1.2,1.2,79,0.00,CLR,OVC,0.35,WeatherDisplay:10.37,2013-06-13 02:28:00,
2013-06-12 19:33:00,55.8,49.3,29.13,West,270,0.9,0.9,79,0.00,CLR,OVC,0.35,WeatherDisplay:10.37,2013-06-13 02:33:00,
2013-06-12 19:38:00,55.0,48.6,29.13,WNW,292,0.0,0.0,79,0.00,CLR,OVC,0.35,WeatherDisplay:10.37,2013-06-13 02:38:00,
2013-06-12 19:43:00,54.7,48.6,29.13,WNW,292,0.0,0.0,80,0.00,CLR,OVC,0.35,WeatherDisplay:10.37,2013-06-13 02:43:00,
2013-06-12 19:48:00,54.3,48.6,29.13,WNW,292,0.0,0.0,81,0.00,CLR,OVC,0.35,WeatherDisplay:10.37,2013-06-13 02:48:00,
2013-06-12 19:53:00,54.1,48.8,29.13,WSW,248,1.2,1.2,82,0.00,CLR,OVC,0.35,WeatherDisplay:10.37,2013-06-13 02:53:00,
2013-06-12 19:58:00,53.6,48.2,29.13,ESE,112,1.2,1.2,82,0.00,CLR,OVC,0.35,WeatherDisplay:10.37,2013-06-13 02:58:00,
2013-06-12 20:03:00,53.4,48.1,29.13,East,90,1.2,1.2,82,0.01,RA,OVC,0.38,WeatherDisplay:10.37,2013-06-13 03:03:00,
2013-06-12 20:08:00,53.1,48.4,29.13,SSW,202,2.3,2.3,84,0.02,RA,OVC,0.38,WeatherDisplay:10.37,2013-06-13 03:08:00,
2013-06-12 20:13:00,52.9,48.2,29.13,North,0,1.2,1.2,84,0.02,RA,OVC,0.38,WeatherDisplay:10.37,2013-06-13 03:13:00,
2013-06-12 20:18:00,52.7,48.0,29.13,NNW,338,0.5,0.5,84,0.02,CLR,OVC,0.38,WeatherDisplay:10.37,2013-06-13 03:18:00,
2013-06-12 20:23:00,52.5,47.8,29.13,ESE,112,0.0,0.5,84,0.02,CLR,OVC,0.38,WeatherDisplay:10.37,2013-06-13 03:23:00,
2013-06-12 20:28:00,52.3,47.6,29.13,SE,135,1.2,1.2,84,0.02,CLR,OVC,0.38,WeatherDisplay:10.37,2013-06-13 03:28:00,
2013-06-12 20:33:00,52.2,47.5,29.13,WSW,248,0.2,0.2,84,0.02,CLR,OVC,0.38,WeatherDisplay:10.37,2013-06-13 03:33:00,
2013-06-12 20:38:00,52.2,47.5,29.13,ESE,112,1.2,1.2,84,0.02,CLR,OVC,0.38,WeatherDisplay:10.37,2013-06-13 03:38:00,
2013-06-12 20:43:00,52.0,47.3,29.13,SSE,158,0.5,0.5,84,0.02,CLR,OVC,0.38,WeatherDisplay:10.37,2013-06-13 03:43:00,
2013-06-12 20:48:00,51.6,46.9,29.13,SSE,158,0.0,0.0,84,0.02,CLR,OVC,0.38,WeatherDisplay:10.37,2013-06-13 03:48:00,
2013-06-12 20:53:00,51.4,46.8,29.13,WSW,248,0.0,0.0,84,0.02,CLR,OVC,0.38,WeatherDisplay:10.37,2013-06-13 03:53:00,
2013-06-12 20:58:00,51.1,46.4,29.13,South,180,0.0,0.0,84,0.02,CLR,OVC,0.38,WeatherDisplay:10.37,2013-06-13 03:58:00,
2013-06-12 21:01:00,50.9,46.2,29.13,South,180,0.0,0.0,84,0.01,CLR,OVC,0.38,WeatherDisplay:10.37,2013-06-13 04:01:00,
2013-06-12 21:06:00,50.7,46.4,29.13,WNW,292,0.5,0.5,85,0.00,CLR,OVC,0.38,WeatherDisplay:10.37,2013-06-13 04:06:00,
2013-06-12 21:11:00,50.5,46.2,29.13,WSW,248,1.2,0.0,85,0.00,CLR,OVC,0.38,WeatherDisplay:10.37,2013-06-13 04:11:00,
2013-06-12 21:16:00,50.4,46.3,29.13,SW,225,0.0,0.0,86,0.00,CLR,OVC,0.38,WeatherDisplay:10.37,2013-06-13 04:16:00,
2013-06-12 21:21:00,50.2,46.2,29.13,WSW,248,0.0,0.0,86,0.00,CLR,OVC,0.38,WeatherDisplay:10.37,2013-06-13 04:21:00,
2013-06-12 21:26:00,50.0,46.0,29.13,South,180,0.0,0.0,86,0.00,CLR,OVC,0.38,WeatherDisplay:10.37,2013-06-13 04:26:00,
2013-06-12 21:31:00,50.0,46.0,29.13,WNW,292,1.2,1.2,86,0.00,CLR,OVC,0.38,WeatherDisplay:10.37,2013-06-13 04:31:00,
2013-06-12 21:36:00,49.8,45.8,29.13,North,0,0.0,0.5,86,0.00,CLR,OVC,0.38,WeatherDisplay:10.37,2013-06-13 04:36:00,
2013-06-12 21:41:00,49.6,45.6,29.13,ESE,112,0.0,0.0,86,0.00,CLR,OVC,0.38,WeatherDisplay:10.37,2013-06-13 04:41:00,
2013-06-12 21:46:00,49.3,45.0,29.13,ESE,112,1.2,0.0,85,0.00,CLR,OVC,0.38,WeatherDisplay:10.37,2013-06-13 04:46:00,
2013-06-12 21:51:00,49.3,45.3,29.14,East,90,1.2,1.2,86,0.00,CLR,OVC,0.38,WeatherDisplay:10.37,2013-06-13 04:51:00,
2013-06-12 21:56:00,49.1,45.1,29.14,East,90,1.2,1.2,86,0.00,CLR,OVC,0.38,WeatherDisplay:10.37,2013-06-13 04:56:00,
2013-06-12 22:01:00,49.1,45.1,29.14,East,90,0.0,0.0,86,0.00,CLR,OVC,0.38,WeatherDisplay:10.37,2013-06-13 05:01:00,
2013-06-12 22:06:00,49.1,45.1,29.14,East,90,0.0,0.0,86,0.00,CLR,OVC,0.38,WeatherDisplay:10.37,2013-06-13 05:06:00,
2013-06-12 22:11:00,48.9,45.2,29.14,NNW,338,0.0,0.0,87,0.00,CLR,OVC,0.38,WeatherDisplay:10.37,2013-06-13 05:11:00,
2013-06-12 22:16:00,48.9,45.2,29.13,ENE,68,0.5,0.5,87,0.00,CLR,OVC,0.38,WeatherDisplay:10.37,2013-06-13 05:16:00,
2013-06-12 22:21:00,48.7,45.0,29.13,NW,315,0.0,0.0,87,0.00,CLR,OVC,0.38,WeatherDisplay:10.37,2013-06-13 05:21:00,
2013-06-12 22:26:00,48.6,44.9,29.13,ENE,68,0.2,0.2,87,0.00,CLR,OVC,0.38,WeatherDisplay:10.37,2013-06-13 05:26:00,
2013-06-12 22:31:00,48.6,44.9,29.13,WNW,292,0.0,0.0,87,0.00,CLR,OVC,0.38,WeatherDisplay:10.37,2013-06-13 05:31:00,
2013-06-12 22:36:00,48.4,44.7,29.13,WNW,292,0.0,0.0,87,0.00,CLR,OVC,0.38,WeatherDisplay:10.37,2013-06-13 05:36:00,
2013-06-12 22:41:00,48.4,44.7,29.13,ESE,112,1.2,0.0,87,0.00,CLR,OVC,0.38,WeatherDisplay:10.37,2013-06-13 05:41:00,
2013-06-12 22:46:00,48.4,44.7,29.13,NNE,22,0.5,0.5,87,0.00,CLR,OVC,0.38,WeatherDisplay:10.37,2013-06-13 05:46:00,
2013-06-12 22:51:00,48.4,44.7,29.13,WNW,292,1.2,1.2,87,0.00,CLR,OVC,0.38,WeatherDisplay:10.37,2013-06-13 05:51:00,
2013-06-12 22:56:00,48.4,44.7,29.13,SSW,202,0.0,0.2,87,0.00,CLR,OVC,0.38,WeatherDisplay:10.37,2013-06-13 05:56:00,
2013-06-12 23:01:00,48.6,44.9,29.13,SE,135,0.5,0.5,87,0.00,CLR,OVC,0.38,WeatherDisplay:10.37,2013-06-13 06:01:00,
2013-06-12 23:06:00,48.6,44.9,29.13,SE,135,0.0,0.0,87,0.00,CLR,OVC,0.38,WeatherDisplay:10.37,2013-06-13 06:06:00,
2013-06-12 23:11:00,48.6,44.9,29.13,SE,135,0.0,0.0,87,0.00,CLR,OVC,0.38,WeatherDisplay:10.37,2013-06-13 06:11:00,
2013-06-12 23:16:00,48.6,44.9,29.13,WNW,292,1.2,0.0,87,0.00,CLR,OVC,0.38,WeatherDisplay:10.37,2013-06-13 06:16:00,
2013-06-12 23:21:00,48.6,44.9,29.13,NE,45,0.0,0.0,87,0.00,CLR,OVC,0.38,WeatherDisplay:10.37,2013-06-13 06:21:00,
2013-06-12 23:26:00,48.6,44.9,29.14,NE,45,0.0,0.0,87,0.00,CLR,OVC,0.38,WeatherDisplay:10.37,2013-06-13 06:26:00,
2013-06-12 23:31:00,48.6,45.2,29.13,East,90,0.0,0.0,88,0.00,CLR,OVC,0.38,WeatherDisplay:10.37,2013-06-13 06:31:00,
2013-06-12 23:36:00,48.6,45.2,29.13,ENE,68,0.0,0.0,88,0.00,CLR,OVC,0.38,WeatherDisplay:10.37,2013-06-13 06:36:00,
2013-06-12 23:42:00,48.6,45.2,29.13,ENE,68,0.0,0.0,88,0.00,CLR,OVC,0.38,WeatherDisplay:10.37,2013-06-13 06:42:00,
2013-06-12 23:47:00,48.6,45.2,29.13,ENE,68,0.0,0.0,88,0.00,CLR,OVC,0.38,WeatherDisplay:10.37,2013-06-13 06:47:00,
2013-06-12 23:52:00,48.6,45.2,29.13,ENE,68,0.0,0.0,88,0.00,CLR,OVC,0.38,WeatherDisplay:10.37,2013-06-13 06:52:00,
2013-06-12 23:57:00,48.6,45.2,29.13,ENE,68,0.0,0.0,88,0.00,CLR,OVC,0.38,WeatherDisplay:10.37,2013-06-13 06:57:00,